Strona główna
METAR-TAF:

METAR-TAF

Lotnisko :

Port lotniczy Harbin-Taiping

Harbin, Chiny

Szerokość geograficzna: 45-45N, Długość geograficzna: 126-46E, wysokość: 143 m

Aktualna obserwacja pogody

Raport powstał 58 minut temu, godzina 12:00 UTC
Wiatr 6 kt od południe
Temperatura -2°C
Wilgotność 31%
Ciśnienie 1018 hPa
Widzialność 10 km lub więcej
Brak chmur poniżej 1500 m i brak chmur cumulonimbus

METAR: ZYHB 181200Z 19003MPS CAVOK M02/M17 Q1018 NOSIG

czas: 20:58 (12:58 UTC)

Prognoza

Raport powstał 3 godziny i 51 minut temu, godzina 09:07 UTC
Prognoza ważna od 18 godzina 12 UTC do 19 godzina 12 UTC
Wiatr 10 kt od południowo-południowy zachód
Widzialność: 6000 m
Rozproszone chmury na wysokości 3000 ft

TAF: ZYHB 180907Z 1812/1912 21005MPS 6000 SCT030 TX03/1906Z TNM09/22Z

Obserwacja i prognoza pogody dla ponad 4000 lotnisk (raport METAR i TAF).

Dostępne stacje oznaczono żółtymi i czerwonymi punktami na mapie.

Najedź kursorem aby zobaczyć nazwę stacji.

Kliknij aby zobaczyć obserwacje i prognozy pogody.

Aby zmienić mapę: kliknij na zielony przycisk z czarnym krzyżykiem, aby powiększyć; na zielony przycisk z myślnikiem, aby pomniejszyć; na zielone strzałki, aby przejść do map sąsiednich.


METAR-TAF: